Accueil
METAR-TAF:

METAR-TAF

Aéroports :

Pembrey, Pays de Galles

latitude: 51-43N, longitude: 004-22W, altitude: 3 m

Observation

Le bulletin a été fait il y a 27 minutes, à 12:50 UTC
Vent 21 kt de sud-ouest
Température 18°C
Humidité 94%
Pression 1024 hPa
Visibilité 10 km ou plus
Nuages fragmentés à une hauteur de 700 ft
Nuages épars à une hauteur de 2300 ft

METAR: EGOP 221250Z 22021KT 9999 BKN007 SCT023 18/17 Q1024 GRN

Heure: 14:17 (13:17 UTC)


TAF: absent

Observations et prévisions météorologiques de plus de 4000 aéroports (messages METAR et TAF).

Les stations disponibles sont représentées par des disques jaunes et rouges sur la carte.

Passer la souris dessus pour voir le nom de la station.

Cliquer dessus pour voir les observations et prévisions météorologiques.

Pour changer de carte: cliquez sur les boutons verts avec une croix noire pour zoomer, sur le bouton vert avec un tiret pour effectuer un zoom arrière, ou sur les flèches vertes pour les cartes adjacentes.


METAR-TAF: